createdAt,value
2016-03-20T00:00:53.198Z,1005.68
2016-03-20T00:01:53.217Z,1005.68
2016-03-20T00:02:53.235Z,1005.69
2016-03-20T00:03:53.253Z,1005.71
2016-03-20T00:04:53.272Z,1005.68
2016-03-20T00:05:53.274Z,1005.65
2016-03-20T00:06:53.292Z,1005.68
2016-03-20T00:07:53.310Z,1005.62
2016-03-20T00:08:53.328Z,1005.65
2016-03-20T00:09:53.347Z,1005.63
2016-03-20T00:10:53.366Z,1005.56
2016-03-20T00:11:53.383Z,1005.58
2016-03-20T00:12:53.402Z,1005.58
2016-03-20T00:13:53.420Z,1005.59
2016-03-20T00:14:53.439Z,1005.64
2016-03-20T00:15:53.457Z,1005.62
2016-03-20T00:16:53.475Z,1005.62
2016-03-20T00:17:53.477Z,1005.61
2016-03-20T00:18:53.497Z,1005.63
2016-03-20T00:19:53.515Z,1005.59
2016-03-20T00:20:53.533Z,1005.61
2016-03-20T00:21:53.551Z,1005.57
2016-03-20T00:22:53.570Z,1005.57
2016-03-20T00:23:53.587Z,1005.58
2016-03-20T00:24:53.606Z,1005.6
2016-03-20T00:25:53.624Z,1005.58
2016-03-20T00:26:53.643Z,1005.53
2016-03-20T00:27:53.661Z,1005.52
2016-03-20T00:28:53.679Z,1005.53
2016-03-20T00:29:53.698Z,1005.47
2016-03-20T00:30:53.700Z,1005.52
2016-03-20T00:31:53.719Z,1005.5
2016-03-20T00:32:53.737Z,1005.59
2016-03-20T00:33:53.755Z,1005.55
2016-03-20T00:34:53.773Z,1005.55
2016-03-20T00:35:53.792Z,1005.58
2016-03-20T00:36:53.811Z,1005.55
2016-03-20T00:37:53.828Z,1005.56
2016-03-20T00:38:53.847Z,1005.55
2016-03-20T00:39:53.866Z,1005.54
2016-03-20T00:40:53.884Z,1005.51
2016-03-20T00:41:53.902Z,1005.47
2016-03-20T00:42:53.920Z,1005.44
2016-03-20T00:43:53.922Z,1005.48
2016-03-20T00:44:53.941Z,1005.46
2016-03-20T00:45:53.975Z,1005.46
2016-03-20T00:46:53.977Z,1005.46
2016-03-20T00:47:53.997Z,1005.44
2016-03-20T00:48:54.015Z,1005.41
2016-03-20T00:49:54.033Z,1005.45
2016-03-20T00:50:54.051Z,1005.44
2016-03-20T00:51:54.069Z,1005.4
2016-03-20T00:52:54.087Z,1005.46
2016-03-20T00:53:54.106Z,1005.39
2016-03-20T00:54:54.109Z,1005.41
2016-03-20T00:55:54.127Z,1005.41
2016-03-20T00:56:54.145Z,1005.41
2016-03-20T00:57:54.164Z,1005.44
2016-03-20T00:58:54.182Z,1005.44
2016-03-20T00:59:54.201Z,1005.48
2016-03-20T01:00:54.250Z,1005.47
2016-03-20T01:01:54.237Z,1005.46
2016-03-20T01:02:54.256Z,1005.45
2016-03-20T01:03:54.273Z,1005.41
2016-03-20T01:04:54.292Z,1005.39
2016-03-20T01:05:54.295Z,1005.39
2016-03-20T01:06:54.314Z,1005.4
2016-03-20T01:07:54.331Z,1005.4
2016-03-20T01:08:54.349Z,1005.37
2016-03-20T01:09:54.368Z,1005.36
2016-03-20T01:10:54.386Z,1005.37
2016-03-20T01:11:54.405Z,1005.34
2016-03-20T01:12:54.422Z,1005.36
2016-03-20T01:13:54.441Z,1005.33
2016-03-20T01:14:54.460Z,1005.3
2016-03-20T01:15:54.477Z,1005.31
2016-03-20T01:16:54.496Z,1005.29
2016-03-20T01:17:54.514Z,1005.31
2016-03-20T01:18:57.533Z,1005.27
2016-03-20T01:19:54.535Z,1005.26
2016-03-20T01:20:54.569Z,1005.26
2016-03-20T01:21:54.571Z,1005.27
2016-03-20T01:22:54.590Z,1005.24
2016-03-20T01:23:54.624Z,1005.25
2016-03-20T01:24:54.627Z,1005.25
2016-03-20T01:25:54.646Z,1005.28
2016-03-20T01:26:54.663Z,1005.23
2016-03-20T01:27:54.682Z,1005.21
2016-03-20T01:28:54.701Z,1005.22
2016-03-20T01:29:54.719Z,1005.2
2016-03-20T01:30:54.721Z,1005.21
2016-03-20T01:31:54.756Z,1005.22
2016-03-20T01:32:54.774Z,1005.17
2016-03-20T01:33:54.792Z,1005.16
2016-03-20T01:34:54.794Z,1005.2
2016-03-20T01:35:54.812Z,1005.17
2016-03-20T01:36:54.831Z,1005.16
2016-03-20T01:37:54.850Z,1005.14
2016-03-20T01:38:54.867Z,1005.13
2016-03-20T01:39:54.887Z,1005.15
2016-03-20T01:40:54.905Z,1005.11
2016-03-20T01:41:54.923Z,1005.12
2016-03-20T01:42:54.925Z,1005.12
2016-03-20T01:43:54.959Z,1005.09
2016-03-20T01:44:54.961Z,1005.05
2016-03-20T01:45:54.980Z,1005.08
2016-03-20T01:46:54.999Z,1005.08
2016-03-20T01:47:55.016Z,1005.02
2016-03-20T01:48:55.035Z,1005.02
2016-03-20T01:49:55.054Z,1005.03
2016-03-20T01:50:55.072Z,1005.05
2016-03-20T01:51:55.091Z,1005.04
2016-03-20T01:52:55.108Z,1005.04
2016-03-20T01:53:55.127Z,1005.04
2016-03-20T01:54:55.146Z,1005.03
2016-03-20T01:55:55.148Z,1005.02
2016-03-20T01:56:55.165Z,1005.02
2016-03-20T01:57:55.185Z,1005
2016-03-20T01:58:55.203Z,1004.98
2016-03-20T01:59:55.221Z,1005
2016-03-20T02:00:55.254Z,1005.03
2016-03-20T02:01:55.257Z,1005.05
2016-03-20T02:02:55.276Z,1004.98
2016-03-20T02:03:55.295Z,1004.97
2016-03-20T02:04:55.313Z,1004.99
2016-03-20T02:05:55.331Z,1004.98
2016-03-20T02:06:55.349Z,1004.94
2016-03-20T02:07:55.367Z,1004.93
2016-03-20T02:08:55.370Z,1004.9
2016-03-20T02:09:55.389Z,1004.86
2016-03-20T02:10:55.407Z,1004.84
2016-03-20T02:11:55.426Z,1004.88
2016-03-20T02:12:55.444Z,1004.84
2016-03-20T02:13:55.462Z,1004.84
2016-03-20T02:14:55.480Z,1004.86
2016-03-20T02:15:55.499Z,1004.84
2016-03-20T02:16:55.502Z,1004.79
2016-03-20T02:17:55.535Z,1004.85
2016-03-20T02:18:55.538Z,1004.83
2016-03-20T02:19:55.555Z,1004.85
2016-03-20T02:20:55.574Z,1004.87
2016-03-20T02:21:55.593Z,1004.83
2016-03-20T02:22:55.611Z,1004.8
2016-03-20T02:23:55.630Z,1004.79
2016-03-20T02:24:55.648Z,1004.84
2016-03-20T02:25:55.666Z,1004.82
2016-03-20T02:26:55.685Z,1004.78
2016-03-20T02:27:55.702Z,1004.83
2016-03-20T02:28:55.705Z,1004.84
2016-03-20T02:29:55.724Z,1004.81
2016-03-20T02:30:55.742Z,1004.83
2016-03-20T02:31:55.760Z,1004.79
2016-03-20T02:32:55.779Z,1004.79
2016-03-20T02:33:55.797Z,1004.8
2016-03-20T02:34:55.815Z,1004.8
2016-03-20T02:35:55.834Z,1004.81
2016-03-20T02:36:55.852Z,1004.81
2016-03-20T02:37:55.870Z,1004.79
2016-03-20T02:38:55.873Z,1004.76
2016-03-20T02:39:55.892Z,1004.77
2016-03-20T02:40:55.909Z,1004.74
2016-03-20T02:41:55.928Z,1004.76
2016-03-20T02:42:55.946Z,1004.81
2016-03-20T02:43:55.964Z,1004.78
2016-03-20T02:44:55.983Z,1004.75
2016-03-20T02:45:56.000Z,1004.75
2016-03-20T02:46:56.020Z,1004.73
2016-03-20T02:47:56.038Z,1004.74
2016-03-20T02:48:56.041Z,1004.78
2016-03-20T02:49:56.058Z,1004.7
2016-03-20T02:50:56.077Z,1004.68
2016-03-20T02:51:56.096Z,1004.67
2016-03-20T02:52:56.113Z,1004.69
2016-03-20T02:53:56.132Z,1004.67
2016-03-20T02:54:56.150Z,1004.68
2016-03-20T02:55:56.169Z,1004.64
2016-03-20T02:56:56.187Z,1004.63
2016-03-20T02:57:56.205Z,1004.65
2016-03-20T02:58:56.223Z,1004.58
2016-03-20T02:59:56.227Z,1004.59
2016-03-20T03:00:56.245Z,1004.55
2016-03-20T03:01:56.262Z,1004.55
2016-03-20T03:02:56.282Z,1004.56
2016-03-20T03:03:56.299Z,1004.56
2016-03-20T03:04:56.318Z,1004.56
2016-03-20T03:05:56.336Z,1004.57
2016-03-20T03:06:56.345Z,1004.57
2016-03-20T03:07:56.364Z,1004.51
2016-03-20T03:08:56.383Z,1004.52
2016-03-20T03:09:56.400Z,1004.5
2016-03-20T03:10:56.419Z,1004.49
2016-03-20T03:11:56.438Z,1004.5
2016-03-20T03:12:56.455Z,1004.5
2016-03-20T03:13:56.474Z,1004.48
2016-03-20T03:14:56.477Z,1004.45
2016-03-20T03:15:56.494Z,1004.48
2016-03-20T03:16:56.513Z,1004.46
2016-03-20T03:17:56.532Z,1004.42
2016-03-20T03:18:56.549Z,1004.43
2016-03-20T03:19:56.568Z,1004.46
2016-03-20T03:20:56.587Z,1004.45
2016-03-20T03:21:56.604Z,1004.43
2016-03-20T03:22:56.623Z,1004.4
2016-03-20T03:23:56.626Z,1004.41
2016-03-20T03:24:56.643Z,1004.4
2016-03-20T03:25:56.663Z,1004.42
2016-03-20T03:26:56.681Z,1004.38
2016-03-20T03:27:56.699Z,1004.4
2016-03-20T03:28:56.717Z,1004.39
2016-03-20T03:29:56.736Z,1004.36
2016-03-20T03:30:56.753Z,1004.38
2016-03-20T03:31:56.773Z,1004.31
2016-03-20T03:32:56.790Z,1004.29
2016-03-20T03:33:56.793Z,1004.24
2016-03-20T03:34:56.811Z,1004.28
2016-03-20T03:35:56.830Z,1004.29
2016-03-20T03:36:56.864Z,1004.3
2016-03-20T03:37:56.867Z,1004.36
2016-03-20T03:38:56.885Z,1004.32
2016-03-20T03:39:56.902Z,1004.33
2016-03-20T03:40:56.922Z,1004.34
2016-03-20T03:41:56.939Z,1004.35
2016-03-20T03:42:56.958Z,1004.3
2016-03-20T03:43:56.960Z,1004.3
2016-03-20T03:44:56.979Z,1004.3
2016-03-20T03:45:56.997Z,1004.3
2016-03-20T03:46:57.016Z,1004.26
2016-03-20T03:47:57.049Z,1004.27
2016-03-20T03:48:57.052Z,1004.21
2016-03-20T03:49:57.071Z,1004.2
2016-03-20T03:50:57.088Z,1004.2
2016-03-20T03:51:57.108Z,1004.15
2016-03-20T03:52:57.110Z,1004.19
2016-03-20T03:53:57.129Z,1004.17
2016-03-20T03:54:57.162Z,1004.13
2016-03-20T03:55:57.165Z,1004.15
2016-03-20T03:56:57.184Z,1004.19
2016-03-20T03:57:57.201Z,1004.2
2016-03-20T03:58:57.220Z,1004.15
2016-03-20T03:59:57.237Z,1004.12
2016-03-20T04:00:57.257Z,1004.15
2016-03-20T04:01:57.275Z,1004.13
2016-03-20T04:02:57.283Z,1004.13
2016-03-20T04:03:57.300Z,1004.12
2016-03-20T04:04:57.319Z,1004.12
2016-03-20T04:05:57.338Z,1004.1
2016-03-20T04:06:57.355Z,1004.11
2016-03-20T04:07:57.374Z,1004.09
2016-03-20T04:08:57.376Z,1004.1
2016-03-20T04:09:57.394Z,1004.09
2016-03-20T04:10:57.414Z,1004.08
2016-03-20T04:11:57.432Z,1004.06
2016-03-20T04:12:57.449Z,1004.02
2016-03-20T04:13:57.469Z,1003.99
2016-03-20T04:14:57.487Z,1004.02
2016-03-20T04:15:57.504Z,1003.99
2016-03-20T04:16:57.523Z,1003.99
2016-03-20T04:17:57.541Z,1003.98
2016-03-20T04:18:57.543Z,1003.99
2016-03-20T04:19:57.563Z,1004.01
2016-03-20T04:20:57.581Z,1003.98
2016-03-20T04:21:57.598Z,1003.99
2016-03-20T04:22:57.618Z,1003.93
2016-03-20T04:23:57.636Z,1004
2016-03-20T04:24:57.653Z,1003.99
2016-03-20T04:25:57.673Z,1004.05
2016-03-20T04:26:57.680Z,1004.02
2016-03-20T04:27:57.686Z,1003.98
2016-03-20T04:28:57.692Z,1003.95
2016-03-20T04:29:57.682Z,1003.95
2016-03-20T04:30:57.687Z,1004.01
2016-03-20T04:31:57.699Z,1004.01
2016-03-20T04:32:57.713Z,1004
2016-03-20T04:33:57.727Z,1004.04
2016-03-20T04:34:57.741Z,1004.03
2016-03-20T04:35:57.754Z,1004.05
2016-03-20T04:36:57.755Z,1004.03
2016-03-20T04:37:57.788Z,1004.02
2016-03-20T04:38:57.789Z,1004.02
2016-03-20T04:39:57.805Z,1004.02
2016-03-20T04:40:57.822Z,1004.06
2016-03-20T04:41:57.840Z,1004.04
2016-03-20T04:42:57.857Z,1004.01
2016-03-20T04:43:57.875Z,1004.05
2016-03-20T04:44:57.891Z,1004.04
2016-03-20T04:45:57.909Z,1004.06
2016-03-20T04:46:57.928Z,1004.01
2016-03-20T04:47:57.946Z,1004.03
2016-03-20T04:48:57.948Z,1004.04
2016-03-20T04:49:57.967Z,1004.01
2016-03-20T04:50:57.986Z,1004.02
2016-03-20T04:51:58.003Z,1004.05
2016-03-20T04:52:58.022Z,1004.05
2016-03-20T04:53:58.040Z,1004.08
2016-03-20T04:54:58.042Z,1004.07
2016-03-20T04:55:58.078Z,1004.05
2016-03-20T04:56:58.080Z,1004.06
2016-03-20T04:57:58.097Z,1004.08
2016-03-20T04:58:58.117Z,1004.03
2016-03-20T04:59:58.135Z,1004.04
2016-03-20T05:00:58.152Z,1004.08
2016-03-20T05:01:58.172Z,1004.1
2016-03-20T05:02:58.189Z,1004.09
2016-03-20T05:03:58.192Z,1004.07
2016-03-20T05:04:58.227Z,1004.07
2016-03-20T05:05:58.229Z,1004.08
2016-03-20T05:06:58.246Z,1004.1
2016-03-20T05:07:58.266Z,1004.05
2016-03-20T05:08:58.284Z,1004.04
2016-03-20T05:09:58.301Z,1004.09
2016-03-20T05:10:58.321Z,1004.11
2016-03-20T05:11:58.338Z,1004.11
2016-03-20T05:12:58.357Z,1004.13
2016-03-20T05:13:58.376Z,1004.13
2016-03-20T05:14:58.378Z,1004.14
2016-03-20T05:15:58.396Z,1004.2
2016-03-20T05:16:58.415Z,1004.12
2016-03-20T05:17:58.433Z,1004.15
2016-03-20T05:18:58.451Z,1004.15
2016-03-20T05:19:58.470Z,1004.19
2016-03-20T05:20:58.488Z,1004.21
2016-03-20T05:21:58.490Z,1004.2
2016-03-20T05:22:58.509Z,1004.23
2016-03-20T05:23:58.528Z,1004.19
2016-03-20T05:24:58.545Z,1004.18
2016-03-20T05:25:58.564Z,1004.19
2016-03-20T05:26:58.582Z,1004.15
2016-03-20T05:27:58.600Z,1004.15
2016-03-20T05:28:58.618Z,1004.13
2016-03-20T05:29:58.622Z,1004.11
2016-03-20T05:30:58.639Z,1004.1
2016-03-20T05:31:58.658Z,1004.12
2016-03-20T05:32:58.677Z,1004.11
2016-03-20T05:33:58.694Z,1004.13
2016-03-20T05:34:58.713Z,1004.12
2016-03-20T05:35:58.732Z,1004.12
2016-03-20T05:36:58.749Z,1004.11
2016-03-20T05:37:58.768Z,1004.16
2016-03-20T05:38:58.786Z,1004.12
2016-03-20T05:39:58.788Z,1004.15
2016-03-20T05:40:58.824Z,1004.14
2016-03-20T05:41:58.826Z,1004.16
2016-03-20T05:42:58.843Z,1004.18
2016-03-20T05:43:58.863Z,1004.18
2016-03-20T05:44:58.881Z,1004.17
2016-03-20T05:45:58.898Z,1004.18
2016-03-20T05:46:58.917Z,1004.21
2016-03-20T05:47:58.920Z,1004.14
2016-03-20T05:48:58.954Z,1004.21
2016-03-20T05:49:58.957Z,1004.18
2016-03-20T05:50:58.975Z,1004.25
2016-03-20T05:51:58.993Z,1004.2
2016-03-20T05:52:59.012Z,1004.23
2016-03-20T05:53:59.030Z,1004.21
2016-03-20T05:54:59.047Z,1004.24
2016-03-20T05:55:59.066Z,1004.24
2016-03-20T05:56:59.069Z,1004.28
2016-03-20T05:57:59.087Z,1004.25
2016-03-20T05:58:59.106Z,1004.31
2016-03-20T05:59:59.124Z,1004.25
2016-03-20T06:00:59.142Z,1004.27
2016-03-20T06:01:59.161Z,1004.32
2016-03-20T06:02:59.179Z,1004.3
2016-03-20T06:03:59.197Z,1004.34
2016-03-20T06:04:59.199Z,1004.35
2016-03-20T06:05:59.219Z,1004.39
2016-03-20T06:06:59.236Z,1004.32
2016-03-20T06:07:59.255Z,1004.37
2016-03-20T06:08:59.274Z,1004.31
2016-03-20T06:09:59.291Z,1004.33
2016-03-20T06:10:59.310Z,1004.31
2016-03-20T06:11:59.328Z,1004.35
2016-03-20T06:12:59.346Z,1004.35
2016-03-20T06:13:59.364Z,1004.35
2016-03-20T06:14:59.368Z,1004.34
2016-03-20T06:15:59.385Z,1004.37
2016-03-20T06:16:59.404Z,1004.38
2016-03-20T06:17:59.423Z,1004.35
2016-03-20T06:18:59.440Z,1004.32
2016-03-20T06:19:59.459Z,1004.32
2016-03-20T06:20:59.478Z,1004.33
2016-03-20T06:21:59.480Z,1004.34
2016-03-20T06:22:59.514Z,1004.38
2016-03-20T06:23:59.531Z,1004.35
2016-03-20T06:24:59.534Z,1004.36
2016-03-20T06:25:59.553Z,1004.35
2016-03-20T06:26:59.587Z,1004.33
2016-03-20T06:27:59.589Z,1004.31
2016-03-20T06:28:59.608Z,1004.33
2016-03-20T06:29:59.611Z,1004.32
2016-03-20T06:30:59.630Z,1004.35
2016-03-20T06:31:59.648Z,1004.36
2016-03-20T06:32:59.666Z,1004.38
2016-03-20T06:33:59.684Z,1004.35
2016-03-20T06:34:59.703Z,1004.42
2016-03-20T06:35:59.721Z,1004.44
2016-03-20T06:36:59.738Z,1004.38
2016-03-20T06:37:59.757Z,1004.42
2016-03-20T06:38:59.776Z,1004.46
2016-03-20T06:39:59.779Z,1004.47
2016-03-20T06:40:59.796Z,1004.41
2016-03-20T06:41:59.815Z,1004.48
2016-03-20T06:42:59.833Z,1004.46
2016-03-20T06:43:59.852Z,1004.45
2016-03-20T06:44:59.870Z,1004.46
2016-03-20T06:45:59.888Z,1004.44
2016-03-20T06:46:59.907Z,1004.42
2016-03-20T06:47:59.910Z,1004.43
2016-03-20T06:48:59.928Z,1004.42
2016-03-20T06:49:59.945Z,1004.45
2016-03-20T06:50:59.965Z,1004.37
2016-03-20T06:51:59.982Z,1004.41
2016-03-20T06:53:00.001Z,1004.43
2016-03-20T06:54:00.020Z,1004.37
2016-03-20T06:55:00.037Z,1004.34
2016-03-20T06:56:00.040Z,1004.36
2016-03-20T06:57:00.059Z,1004.39
2016-03-20T06:58:00.077Z,1004.39
2016-03-20T06:59:00.095Z,1004.35
2016-03-20T07:00:00.114Z,1004.35
2016-03-20T07:01:00.131Z,1004.33
2016-03-20T07:02:00.150Z,1004.34
2016-03-20T07:03:00.169Z,1004.32
2016-03-20T07:04:00.186Z,1004.29
2016-03-20T07:05:00.205Z,1004.32
2016-03-20T07:06:00.224Z,1004.32
2016-03-20T07:07:00.226Z,1004.3
2016-03-20T07:08:00.244Z,1004.3
2016-03-20T07:09:00.263Z,1004.29
2016-03-20T07:10:00.280Z,1004.3
2016-03-20T07:11:00.300Z,1004.32
2016-03-20T07:12:00.318Z,1004.35
2016-03-20T07:13:00.321Z,1004.29
2016-03-20T07:14:00.354Z,1004.34
2016-03-20T07:15:00.357Z,1004.33
2016-03-20T07:16:00.376Z,1004.36
2016-03-20T07:17:00.393Z,1004.35
2016-03-20T07:18:00.412Z,1004.37
2016-03-20T07:19:00.429Z,1004.38
2016-03-20T07:20:00.449Z,1004.38
2016-03-20T07:21:00.467Z,1004.41
2016-03-20T07:22:00.470Z,1004.37
2016-03-20T07:23:00.487Z,1004.37
2016-03-20T07:24:00.522Z,1004.36
2016-03-20T07:25:00.525Z,1004.39
2016-03-20T07:26:00.542Z,1004.35
2016-03-20T07:27:00.561Z,1004.35
2016-03-20T07:28:00.579Z,1004.34
2016-03-20T07:29:00.597Z,1004.34
2016-03-20T07:30:00.616Z,1004.37
2016-03-20T07:31:00.634Z,1004.34
2016-03-20T07:32:00.652Z,1004.32
2016-03-20T07:33:00.656Z,1004.37
2016-03-20T07:34:00.674Z,1004.37
2016-03-20T07:35:00.691Z,1004.35
2016-03-20T07:36:00.711Z,1004.36
2016-03-20T07:37:00.728Z,1004.36
2016-03-20T07:38:00.749Z,1004.38
2016-03-20T07:39:00.753Z,1004.39
2016-03-20T07:40:00.786Z,1004.37
2016-03-20T07:41:00.788Z,1004.4
2016-03-20T07:42:00.808Z,1004.36
2016-03-20T07:43:00.825Z,1004.38
2016-03-20T07:44:00.844Z,1004.41
2016-03-20T07:45:00.863Z,1004.45
2016-03-20T07:46:00.880Z,1004.4
2016-03-20T07:47:00.899Z,1004.39
2016-03-20T07:48:00.918Z,1004.39
2016-03-20T07:49:00.935Z,1004.41
2016-03-20T07:50:00.938Z,1004.47
2016-03-20T07:51:00.957Z,1004.44
2016-03-20T07:52:00.974Z,1004.46
2016-03-20T07:53:00.994Z,1004.44
2016-03-20T07:54:01.012Z,1004.44
2016-03-20T07:55:01.029Z,1004.47
2016-03-20T07:56:01.049Z,1004.48
2016-03-20T07:57:01.067Z,1004.48
2016-03-20T07:58:01.085Z,1004.42
2016-03-20T07:59:01.103Z,1004.44
2016-03-20T08:00:01.106Z,1004.37
2016-03-20T08:01:01.123Z,1004.39
2016-03-20T08:02:01.143Z,1004.38
2016-03-20T08:03:01.161Z,1004.44
2016-03-20T08:04:01.194Z,1004.44
2016-03-20T08:05:01.198Z,1004.4
2016-03-20T08:06:01.231Z,1004.43
2016-03-20T08:07:01.234Z,1004.45
2016-03-20T08:08:01.236Z,1004.36
2016-03-20T08:09:01.255Z,1004.42
2016-03-20T08:10:01.273Z,1004.41
2016-03-20T08:11:01.291Z,1004.39
2016-03-20T08:12:01.310Z,1004.39
2016-03-20T08:13:01.328Z,1004.37
2016-03-20T08:14:01.347Z,1004.37
2016-03-20T08:15:01.365Z,1004.32
2016-03-20T08:16:01.383Z,1004.32
2016-03-20T08:17:01.401Z,1004.31
2016-03-20T08:18:01.419Z,1004.36
2016-03-20T08:19:01.422Z,1004.33
2016-03-20T08:20:01.457Z,1004.34
2016-03-20T08:21:01.459Z,1004.33
2016-03-20T08:22:01.477Z,1004.3
2016-03-20T08:23:01.496Z,1004.35
2016-03-20T08:24:01.514Z,1004.33
2016-03-20T08:25:01.532Z,1004.29
2016-03-20T08:26:01.551Z,1004.32
2016-03-20T08:27:01.568Z,1004.36
2016-03-20T08:28:01.588Z,1004.35
2016-03-20T08:29:01.606Z,1004.31
2016-03-20T08:30:01.624Z,1004.33
2016-03-20T08:31:01.642Z,1004.28
2016-03-20T08:32:01.645Z,1004.28
2016-03-20T08:33:01.664Z,1004.36
2016-03-20T08:34:01.681Z,1004.29
2016-03-20T08:35:01.700Z,1004.32
2016-03-20T08:36:01.718Z,1004.26
2016-03-20T08:37:01.737Z,1004.3
2016-03-20T08:38:01.755Z,1004.35
2016-03-20T08:39:01.773Z,1004.36
2016-03-20T08:40:01.792Z,1004.33
2016-03-20T08:41:01.810Z,1004.37
2016-03-20T08:42:01.828Z,1004.38
2016-03-20T08:43:01.846Z,1004.36
2016-03-20T08:44:01.849Z,1004.35
2016-03-20T08:45:01.867Z,1004.33
2016-03-20T08:46:01.886Z,1004.34
2016-03-20T08:47:01.904Z,1004.35
2016-03-20T08:48:01.922Z,1004.37
2016-03-20T08:49:01.941Z,1004.38
2016-03-20T08:50:01.959Z,1004.39
2016-03-20T08:51:01.977Z,1004.4
2016-03-20T08:52:01.996Z,1004.41
2016-03-20T08:53:02.013Z,1004.42
2016-03-20T08:54:02.016Z,1004.44
2016-03-20T08:55:02.035Z,1004.43
2016-03-20T08:56:02.069Z,1004.4
2016-03-20T08:57:02.071Z,1004.43
2016-03-20T08:58:02.090Z,1004.43
2016-03-20T08:59:02.124Z,1004.47
2016-03-20T09:00:02.126Z,1004.49
2016-03-20T09:01:02.145Z,1004.49
2016-03-20T09:02:02.162Z,1004.5
2016-03-20T09:03:02.182Z,1004.47
2016-03-20T09:04:02.200Z,1004.45
2016-03-20T09:05:02.217Z,1004.41
2016-03-20T09:06:02.236Z,1004.44
2016-03-20T09:07:02.255Z,1004.42
2016-03-20T09:08:02.273Z,1004.44
2016-03-20T09:09:02.291Z,1004.45
2016-03-20T09:10:02.294Z,1004.44
2016-03-20T09:11:02.312Z,1004.44
2016-03-20T09:12:02.331Z,1004.44
2016-03-20T09:13:02.349Z,1004.49
2016-03-20T09:14:02.383Z,1004.54
2016-03-20T09:15:02.386Z,1004.52
2016-03-20T09:16:02.404Z,1004.51
2016-03-20T09:17:02.422Z,1004.42
2016-03-20T09:18:02.441Z,1004.43
2016-03-20T09:19:02.458Z,1004.44
2016-03-20T09:20:02.477Z,1004.49
2016-03-20T09:21:02.496Z,1004.4
2016-03-20T09:22:02.498Z,1004.42
2016-03-20T09:23:02.516Z,1004.42
2016-03-20T09:24:02.551Z,1004.42
2016-03-20T09:25:02.553Z,1004.39
2016-03-20T09:26:02.571Z,1004.42
2016-03-20T09:27:02.590Z,1004.38
2016-03-20T09:28:02.607Z,1004.38
2016-03-20T09:29:02.627Z,1004.38
2016-03-20T09:30:02.645Z,1004.37
2016-03-20T09:31:02.662Z,1004.41
2016-03-20T09:32:02.682Z,1004.39
2016-03-20T09:33:02.700Z,1004.37
2016-03-20T09:34:02.717Z,1004.38
2016-03-20T09:35:02.736Z,1004.36
2016-03-20T09:36:02.754Z,1004.33
2016-03-20T09:37:02.757Z,1004.33
2016-03-20T09:38:02.776Z,1004.35
2016-03-20T09:39:02.809Z,1004.37
2016-03-20T09:40:02.812Z,1004.37
2016-03-20T09:41:02.831Z,1004.35
2016-03-20T09:42:02.849Z,1004.35
2016-03-20T09:43:02.866Z,1004.36
2016-03-20T09:44:02.886Z,1004.43
2016-03-20T09:45:02.903Z,1004.39
2016-03-20T09:46:02.922Z,1004.38
2016-03-20T09:47:02.956Z,1004.39
2016-03-20T09:48:02.958Z,1004.36
2016-03-20T09:49:02.977Z,1004.34
2016-03-20T09:50:02.996Z,1004.33
2016-03-20T09:51:02.999Z,1004.39
2016-03-20T09:52:03.032Z,1004.37
2016-03-20T09:53:03.035Z,1004.34
2016-03-20T09:54:03.069Z,1004.35
2016-03-20T09:55:03.071Z,1004.39
2016-03-20T09:56:03.090Z,1004.4
2016-03-20T09:57:03.124Z,1004.3
2016-03-20T09:58:03.126Z,1004.31
2016-03-20T09:59:03.145Z,1004.35
2016-03-20T10:00:03.162Z,1004.33
2016-03-20T10:01:03.181Z,1004.36
2016-03-20T10:02:03.199Z,1004.34
2016-03-20T10:03:03.218Z,1004.39
2016-03-20T10:04:03.236Z,1004.36
2016-03-20T10:05:03.254Z,1004.34
2016-03-20T10:06:03.273Z,1004.27
2016-03-20T10:07:03.291Z,1004.28
2016-03-20T10:08:03.309Z,1004.26
2016-03-20T10:09:03.327Z,1004.26
2016-03-20T10:10:03.346Z,1004.28
2016-03-20T10:11:03.364Z,1004.26
2016-03-20T10:12:03.383Z,1004.25
2016-03-20T10:13:03.386Z,1004.29
2016-03-20T10:14:03.403Z,1004.28
2016-03-20T10:15:03.422Z,1004.32
2016-03-20T10:16:03.440Z,1004.36
2016-03-20T10:17:03.458Z,1004.27
2016-03-20T10:18:03.477Z,1004.24
2016-03-20T10:19:03.494Z,1004.26
2016-03-20T10:20:03.514Z,1004.27
2016-03-20T10:21:03.532Z,1004.31
2016-03-20T10:22:03.566Z,1004.35
2016-03-20T10:23:03.569Z,1004.21
2016-03-20T10:24:03.587Z,1004.24
2016-03-20T10:25:03.605Z,1004.18
2016-03-20T10:26:03.624Z,1004.2
2016-03-20T10:27:03.641Z,1004.25
2016-03-20T10:28:03.660Z,1004.2
2016-03-20T10:29:03.679Z,1004.21
2016-03-20T10:30:03.697Z,1004.23
2016-03-20T10:31:03.715Z,1004.22
2016-03-20T10:32:03.734Z,1004.23
2016-03-20T10:33:03.752Z,1004.25
2016-03-20T10:34:03.770Z,1004.23
2016-03-20T10:35:03.788Z,1004.24
2016-03-20T10:36:03.806Z,1004.23
2016-03-20T10:37:03.810Z,1004.27
2016-03-20T10:38:03.843Z,1004.26
2016-03-20T10:39:03.845Z,1004.24
2016-03-20T10:40:03.880Z,1004.24
2016-03-20T10:41:03.883Z,1004.28
2016-03-20T10:42:03.916Z,1004.25
2016-03-20T10:43:03.919Z,1004.24
2016-03-20T10:44:03.953Z,1004.24
2016-03-20T10:45:03.956Z,1004.25
2016-03-20T10:46:03.974Z,1004.27
2016-03-20T10:47:03.992Z,1004.34
2016-03-20T10:48:04.011Z,1004.22
2016-03-20T10:49:04.029Z,1004.27
2016-03-20T10:50:04.047Z,1004.3
2016-03-20T10:51:04.066Z,1004.28
2016-03-20T10:52:04.083Z,1004.24
2016-03-20T10:53:04.103Z,1004.27
2016-03-20T10:54:04.121Z,1004.31
2016-03-20T10:55:04.138Z,1004.21
2016-03-20T10:56:04.157Z,1004.25
2016-03-20T10:57:04.176Z,1004.27
2016-03-20T10:58:04.193Z,1004.26
2016-03-20T10:59:04.212Z,1004.21
2016-03-20T11:00:04.230Z,1004.23
2016-03-20T11:01:04.249Z,1004.29
2016-03-20T11:02:04.267Z,1004.24
2016-03-20T11:03:04.285Z,1004.21
2016-03-20T11:04:04.304Z,1004.25
2016-03-20T11:05:04.322Z,1004.26
2016-03-20T11:06:04.340Z,1004.22
2016-03-20T11:07:04.373Z,1004.19
2016-03-20T11:08:04.376Z,1004.23
2016-03-20T11:09:04.396Z,1004.21
2016-03-20T11:10:04.414Z,1004.3
2016-03-20T11:11:04.431Z,1004.23
2016-03-20T11:12:04.450Z,1004.1
2016-03-20T11:13:04.469Z,1004.18
2016-03-20T11:14:04.486Z,1004.18
2016-03-20T11:15:04.505Z,1004.12
2016-03-20T11:16:04.523Z,1004.1
2016-03-20T11:17:04.542Z,1004.11
2016-03-20T11:18:04.560Z,1004.06
2016-03-20T11:19:04.578Z,1004.02
2016-03-20T11:20:04.597Z,1003.96
2016-03-20T11:21:04.615Z,1004.01
2016-03-20T11:22:04.633Z,1003.92
2016-03-20T11:23:04.652Z,1003.92
2016-03-20T11:24:04.669Z,1003.93
2016-03-20T11:25:04.689Z,1003.87
2016-03-20T11:26:04.707Z,1003.95
2016-03-20T11:27:04.725Z,1003.91
2016-03-20T11:28:04.743Z,1003.9
2016-03-20T11:29:04.762Z,1003.88
2016-03-20T11:30:04.780Z,1003.9
2016-03-20T11:31:04.798Z,1003.83
2016-03-20T11:32:04.816Z,1003.79
2016-03-20T11:33:04.882Z,1003.77
2016-03-20T11:34:04.854Z,1003.82
2016-03-20T11:35:04.871Z,1003.83
2016-03-20T11:36:04.889Z,1003.84
2016-03-20T11:37:04.909Z,1003.87
2016-03-20T11:38:04.926Z,1003.8
2016-03-20T11:39:04.944Z,1003.78
2016-03-20T11:40:04.962Z,1003.78
2016-03-20T11:41:04.981Z,1003.75
2016-03-20T11:42:05.000Z,1003.72
2016-03-20T11:43:05.018Z,1003.76
2016-03-20T11:44:05.037Z,1003.76
2016-03-20T11:45:05.055Z,1003.78
2016-03-20T11:46:05.072Z,1003.82
2016-03-20T11:47:05.091Z,1003.77
2016-03-20T11:48:05.109Z,1003.7
2016-03-20T11:49:06.175Z,1003.75
2016-03-20T11:50:05.144Z,1003.7
2016-03-20T11:51:05.161Z,1003.72
2016-03-20T11:52:05.180Z,1003.69
2016-03-20T11:53:05.199Z,1003.68
2016-03-20T11:54:05.216Z,1003.64
2016-03-20T11:55:05.235Z,1003.68
2016-03-20T11:56:05.252Z,1003.73
2016-03-20T11:57:05.271Z,1003.69
2016-03-20T11:58:05.290Z,1003.67
2016-03-20T11:59:05.308Z,1003.68
2016-03-20T12:00:05.327Z,1003.68
2016-03-20T12:01:05.346Z,1003.65
2016-03-20T12:02:05.363Z,1003.65
2016-03-20T12:03:05.397Z,1003.64
2016-03-20T12:04:05.400Z,1003.66
2016-03-20T12:05:05.418Z,1003.64
2016-03-20T12:06:05.436Z,1003.69
2016-03-20T12:07:05.454Z,1003.67
2016-03-20T12:08:05.473Z,1003.64
2016-03-20T12:09:05.491Z,1003.65